Patton Village, California
Current Conditions -  °F | °C
As of 2:55 AM on Friday 31 Oct 2014 (Local Time) from KRTS Reporting Station
Clear Clear  
Wind Chill: 55°   Ceiling: Unl
Heat Index: 55°   Visibility: 10mi
Dew Point: 25°   Wind: 5mph
Humidity: 31%   Direction: 210°SSW
Pressure: 29.93"   Gusts: NA
Location:  40.3266°N, 120.122°W
Report Text: KRTS 310955Z AUTO 21004KT 10SM CLR 13/M04 A2993 RMK AO2
Loading
Personal Weather Stations






























Interactive Weather Map New forecast layout! Learn more

10-Day Weather Forecast

Advertisements
Track Severe Weather on mobile